Time;durP1;ratioP1;P1;durP2;ratioP2;P2;SDS_P1;SDS_P2;PMS_P1;PMS_P2;Temp;Humidity;BMP_temperature;BMP_pressure;BME280_temperature;BME280_humidity;BME280_pressure;Samples;Min_cycle;Max_cycle;Signal;HPM_P1;HPM_P2
2022/08/23 00:02:08;;;;;;;3.78;3.58;;;16.70;99.90;;;;;;5037441;28;20184;-77
2022/08/23 00:04:41;;;;;;;4.25;3.95;;;16.60;99.90;;;;;;5036822;28;20181;-77
2022/08/23 00:07:10;;;;;;;4.03;3.72;;;16.50;99.90;;;;;;5032283;28;20191;-77
2022/08/23 00:09:36;;;;;;;4.80;4.13;;;16.30;99.90;;;;;;5045604;28;20656;-78
2022/08/23 00:12:08;;;;;;;5.07;3.63;;;16.30;99.90;;;;;;5052994;28;20242;-78
2022/08/23 00:14:35;;;;;;;8.38;4.43;;;16.30;99.90;;;;;;5055943;28;20185;-78
2022/08/23 00:17:03;;;;;;;5.25;4.05;;;16.30;99.90;;;;;;5040539;28;20196;-77
2022/08/23 00:19:29;;;;;;;6.00;4.05;;;16.20;99.90;;;;;;5041488;28;20246;-77
2022/08/23 00:21:55;;;;;;;5.03;3.85;;;16.20;99.90;;;;;;5055687;28;20243;-77
2022/08/23 00:24:23;;;;;;;5.20;4.45;;;16.10;99.90;;;;;;5063366;28;20203;-78
2022/08/23 00:26:49;;;;;;;4.63;4.32;;;16.00;99.90;;;;;;5056351;28;20197;-77
2022/08/23 00:29:16;;;;;;;6.80;4.53;;;15.90;99.90;;;;;;5043789;28;20238;-78
2022/08/23 00:31:41;;;;;;;4.72;4.32;;;15.90;99.90;;;;;;5040069;28;20208;-77
2022/08/23 00:34:07;;;;;;;5.03;4.63;;;15.90;99.90;;;;;;5035836;28;20179;-77
2022/08/23 00:36:33;;;;;;;4.90;4.40;;;15.80;99.90;;;;;;5036504;28;20182;-77
2022/08/23 00:38:58;;;;;;;5.93;4.22;;;15.90;99.90;;;;;;5033305;28;20192;-78
2022/08/23 00:41:32;;;;;;;5.88;4.40;;;15.90;99.90;;;;;;5058342;28;20182;-78
2022/08/23 00:50:00;;;;;;;5.35;4.85;;;15.90;99.90;;;;;;5037548;28;20176;-77
2022/08/23 00:52:32;;;;;;;4.40;4.13;;;15.90;99.90;;;;;;5040098;28;20207;-77
2022/08/23 00:54:58;;;;;;;5.07;4.57;;;15.80;99.90;;;;;;5054896;28;20216;-77
2022/08/23 00:57:26;;;;;;;4.85;4.45;;;15.80;99.90;;;;;;5041868;28;20651;-76
2022/08/23 00:59:52;;;;;;;5.18;4.75;;;15.70;99.90;;;;;;5043264;28;20591;-76
2022/08/23 01:02:18;;;;;;;5.47;4.97;;;15.70;99.90;;;;;;5043585;28;20180;-77
2022/08/23 01:04:54;;;;;;;5.03;4.63;;;15.70;99.90;;;;;;5030016;28;20215;-77
2022/08/23 01:07:40;;;;;;;5.15;4.75;;;15.60;99.90;;;;;;5043457;28;20191;-77
2022/08/23 01:10:16;;;;;;;7.22;4.82;;;15.50;99.90;;;;;;5040578;28;20641;-77
2022/08/23 01:12:47;;;;;;;4.40;4.07;;;15.50;99.90;;;;;;5042766;28;20297;-77
2022/08/23 01:15:20;;;;;;;4.18;3.88;;;15.50;99.90;;;;;;5032244;28;20188;-77
2022/08/23 01:18:08;;;;;;;5.35;4.93;;;15.50;99.90;;;;;;5040232;28;20192;-78
2022/08/23 01:20:53;;;;;;;4.63;4.22;;;15.40;99.90;;;;;;5029133;28;20211;-76
2022/08/23 01:23:42;;;;;;;5.85;4.18;;;15.40;99.90;;;;;;5027443;28;20246;-79
2022/08/23 01:26:09;;;;;;;4.82;4.32;;;15.40;99.90;;;;;;5034436;28;20188;-77
2022/08/23 01:28:39;;;;;;;5.35;4.85;;;15.40;99.90;;;;;;5036075;28;20224;-76
2022/08/23 01:31:06;;;;;;;4.50;4.13;;;15.30;99.90;;;;;;5036804;28;20176;-76
2022/08/23 01:33:31;;;;;;;6.20;4.78;;;15.30;99.90;;;;;;5033517;28;20294;-77
2022/08/23 01:35:57;;;;;;;4.93;4.53;;;15.30;99.90;;;;;;5044992;28;20279;-76
2022/08/23 01:38:24;;;;;;;5.28;4.88;;;15.30;99.90;;;;;;5036337;28;20216;-76
2022/08/23 01:40:51;;;;;;;5.35;4.88;;;15.30;99.90;;;;;;5031373;28;20181;-77
2022/08/23 01:43:18;;;;;;;4.45;4.13;;;15.30;99.90;;;;;;5031128;28;20176;-76
2022/08/23 01:45:45;;;;;;;5.68;4.70;;;15.30;99.90;;;;;;5037751;28;20535;-77
2022/08/23 01:48:12;;;;;;;5.55;4.25;;;15.30;99.90;;;;;;5046320;28;20203;-76
2022/08/23 01:50:37;;;;;;;4.97;4.57;;;15.20;99.90;;;;;;5040457;28;20678;-77
2022/08/23 01:53:03;;;;;;;5.82;5.30;;;15.10;99.90;;;;;;5030818;28;20211;-77
2022/08/23 01:55:29;;;;;;;5.13;4.78;;;15.10;99.90;;;;;;5044151;28;20199;-78
2022/08/23 01:57:58;;;;;;;5.53;5.15;;;15.10;99.90;;;;;;5046422;28;20251;-78
2022/08/23 02:00:29;;;;;;;6.82;5.15;;;15.00;99.90;;;;;;5042221;28;20180;-83
2022/08/23 02:02:55;;;;;;;5.00;4.60;;;15.10;99.90;;;;;;5040752;28;20207;-78
2022/08/23 02:05:21;;;;;;;5.60;5.10;;;15.00;99.90;;;;;;5039830;28;20658;-78
2022/08/23 02:07:47;;;;;;;5.35;4.93;;;15.00;99.90;;;;;;5044296;28;20199;-78
2022/08/23 02:10:14;;;;;;;5.22;4.78;;;14.90;99.90;;;;;;5048095;28;20176;-78
2022/08/23 02:12:40;;;;;;;5.20;4.72;;;14.80;99.90;;;;;;5065314;28;20278;-79
2022/08/23 02:15:06;;;;;;;4.93;4.53;;;14.80;99.90;;;;;;5034974;28;20167;-79
2022/08/23 02:17:32;;;;;;;5.18;4.88;;;14.70;99.90;;;;;;5057254;28;20564;-79
2022/08/23 02:19:58;;;;;;;5.22;4.82;;;14.70;99.90;;;;;;5039059;28;20206;-78
2022/08/23 02:22:24;;;;;;;4.97;4.57;;;14.60;99.90;;;;;;5049072;28;20259;-78
2022/08/23 02:24:50;;;;;;;5.28;4.70;;;14.60;99.90;;;;;;5042393;28;20262;-77
2022/08/23 02:27:16;;;;;;;5.07;4.57;;;14.70;99.90;;;;;;5032366;28;20213;-78
2022/08/23 02:29:43;;;;;;;4.95;4.57;;;14.60;99.90;;;;;;5031270;28;20223;-81
2022/08/23 02:32:10;;;;;;;5.63;4.47;;;14.50;99.90;;;;;;5040279;28;20200;-78
2022/08/23 02:34:36;;;;;;;5.38;4.88;;;14.50;99.90;;;;;;5044586;28;20236;-77
2022/08/23 02:37:02;;;;;;;6.35;5.05;;;14.40;99.90;;;;;;5039080;28;20636;-77
2022/08/23 02:39:29;;;;;;;6.38;5.20;;;14.30;99.90;;;;;;5045243;28;20176;-78
2022/08/23 02:41:54;;;;;;;5.10;4.65;;;14.40;99.90;;;;;;5045129;28;20186;-77
2022/08/23 02:44:21;;;;;;;5.60;5.20;;;14.30;99.90;;;;;;5040026;28;20260;-77
2022/08/23 02:46:47;;;;;;;5.40;5.00;;;14.20;99.90;;;;;;5042117;28;20204;-77
2022/08/23 02:49:12;;;;;;;6.30;5.70;;;14.20;99.90;;;;;;5041397;28;20520;-77
2022/08/23 02:51:39;;;;;;;4.82;4.53;;;14.20;99.90;;;;;;5042446;28;20611;-77
2022/08/23 02:54:05;;;;;;;5.70;5.30;;;14.20;99.90;;;;;;5056656;28;20656;-76
2022/08/23 02:56:32;;;;;;;5.60;5.15;;;14.20;99.90;;;;;;5038143;28;20263;-76
2022/08/23 02:59:09;;;;;;;6.18;5.63;;;14.10;99.90;;;;;;5063866;28;20182;-76
2022/08/23 03:01:37;;;;;;;6.30;5.72;;;14.00;99.90;;;;;;5038649;28;20169;-77
2022/08/23 03:04:06;;;;;;;6.47;5.55;;;13.80;99.90;;;;;;5039897;28;20267;-77
2022/08/23 03:06:33;;;;;;;6.68;5.63;;;13.70;99.90;;;;;;5043386;28;20173;-76
2022/08/23 03:08:59;;;;;;;5.90;5.45;;;13.60;99.90;;;;;;5049079;28;20179;-76
2022/08/23 03:11:25;;;;;;;6.70;6.25;;;13.50;99.90;;;;;;5025456;28;20235;-76
2022/08/23 03:13:51;;;;;;;6.03;5.53;;;13.50;99.90;;;;;;5033684;28;20599;-76
2022/08/23 03:16:18;;;;;;;7.03;5.47;;;13.40;99.90;;;;;;5043670;28;20614;-75
2022/08/23 03:18:45;;;;;;;6.63;5.57;;;13.40;99.90;;;;;;5034845;28;20258;-76
2022/08/23 03:21:11;;;;;;;5.93;5.43;;;13.50;99.90;;;;;;5054914;28;20195;-76
2022/08/23 03:23:38;;;;;;;6.90;5.55;;;13.50;99.90;;;;;;5042127;28;20208;-76
2022/08/23 03:26:13;;;;;;;6.88;6.13;;;13.60;99.90;;;;;;5037362;28;20200;-76
2022/08/23 03:28:41;;;;;;;6.68;6.07;;;13.60;99.90;;;;;;5041659;28;20204;-77
2022/08/23 03:31:08;;;;;;;6.60;6.18;;;13.60;99.90;;;;;;5036101;28;20176;-77
2022/08/23 03:33:56;;;;;;;6.55;5.88;;;13.60;99.90;;;;;;5046512;28;20212;-79
2022/08/23 03:36:54;;;;;;;;;;;;;;;;;;;;;
2022/08/23 03:43:00;;;;;;;5.95;5.45;;;13.60;99.90;;;;;;5052505;28;20180;-79
2022/08/23 03:45:26;;;;;;;7.22;4.88;;;13.60;99.90;;;;;;5043371;28;20196;-77
2022/08/23 03:47:51;;;;;;;8.82;5.93;;;13.50;99.90;;;;;;5040140;28;20219;-78
2022/08/23 03:50:17;;;;;;;5.18;4.82;;;13.50;99.90;;;;;;5037571;28;20239;-77
2022/08/23 03:52:43;;;;;;;5.35;4.95;;;13.50;99.90;;;;;;5042990;28;20624;-78
2022/08/23 03:55:09;;;;;;;5.60;5.20;;;13.50;99.90;;;;;;5045036;28;20168;-76
2022/08/23 03:57:43;;;;;;;5.93;5.20;;;13.50;99.90;;;;;;5043924;28;20202;-78
2022/08/23 04:00:13;;;;;;;5.88;5.18;;;13.40;99.90;;;;;;5024942;28;20552;-78
2022/08/23 04:02:38;;;;;;;6.00;5.40;;;13.40;99.90;;;;;;5037414;28;20168;-78
2022/08/23 04:05:07;;;;;;;6.00;5.40;;;13.40;99.90;;;;;;5039461;28;20183;-78
2022/08/23 04:07:32;;;;;;;5.90;5.30;;;13.40;99.90;;;;;;5038788;28;20191;-78
2022/08/23 04:09:58;;;;;;;6.50;5.88;;;13.30;99.90;;;;;;5052889;28;20200;-78
2022/08/23 04:12:24;;;;;;;5.95;5.45;;;13.20;99.90;;;;;;5045343;28;20208;-77
2022/08/23 04:14:50;;;;;;;5.97;5.47;;;13.10;99.90;;;;;;5041454;28;20184;-76
2022/08/23 04:17:16;;;;;;;6.20;5.60;;;13.00;99.90;;;;;;5056599;28;20198;-76
2022/08/23 04:19:42;;;;;;;6.05;5.55;;;13.00;99.90;;;;;;5037756;28;20545;-76
2022/08/23 04:22:13;;;;;;;7.05;5.60;;;13.10;99.90;;;;;;5044548;28;20176;-76
2022/08/23 04:24:40;;;;;;;5.72;5.22;;;13.00;99.90;;;;;;5036345;28;20184;-77
2022/08/23 04:27:07;;;;;;;7.90;5.40;;;13.00;99.90;;;;;;5024053;28;20235;-76
2022/08/23 04:29:33;;;;;;;5.97;5.47;;;12.90;99.90;;;;;;5029332;28;20242;-78
2022/08/23 04:31:58;;;;;;;6.68;6.13;;;12.90;99.90;;;;;;5027134;28;20628;-78
2022/08/23 04:34:26;;;;;;;6.32;5.82;;;13.00;99.90;;;;;;5027765;28;20177;-78
2022/08/23 04:36:52;;;;;;;6.28;5.70;;;13.00;99.90;;;;;;5034023;28;20221;-77
2022/08/23 04:39:18;;;;;;;6.40;5.80;;;13.00;99.90;;;;;;5022154;28;20189;-77
2022/08/23 04:44:28;;;;;;;6.38;5.88;;;13.00;99.90;;;;;;5026632;28;20192;-78
2022/08/23 04:46:54;;;;;;;6.70;6.15;;;13.10;99.90;;;;;;5023239;28;20208;-77
2022/08/23 04:49:21;;;;;;;6.80;6.22;;;13.20;99.90;;;;;;5028896;28;20183;-78
2022/08/23 04:51:48;;;;;;;5.85;5.35;;;13.20;99.90;;;;;;5024135;28;20204;-77
2022/08/23 04:54:14;;;;;;;6.90;5.72;;;13.20;99.90;;;;;;5020517;28;20180;-80
2022/08/23 04:56:40;;;;;;;5.85;5.35;;;13.20;99.90;;;;;;5024647;28;20585;-78
2022/08/23 04:59:06;;;;;;;6.35;5.78;;;13.10;99.90;;;;;;5027196;28;20184;-78
2022/08/23 05:01:32;;;;;;;6.78;6.18;;;13.20;99.90;;;;;;5036542;28;20177;-77
2022/08/23 05:03:59;;;;;;;6.32;5.82;;;13.30;99.90;;;;;;5042702;28;20220;-78
2022/08/23 05:06:24;;;;;;;5.80;5.40;;;13.20;99.90;;;;;;5025249;28;20548;-79
2022/08/23 05:08:56;;;;;;;6.65;6.00;;;13.30;99.90;;;;;;5037606;28;20230;-79
2022/08/23 05:14:35;;;;;;;6.05;5.55;;;13.30;99.90;;;;;;5045408;28;20288;-81
2022/08/23 05:17:29;;;;;;;;;;;;;;;;;;;;;
2022/08/23 05:20:04;;;;;;;6.95;6.35;;;13.60;99.90;;;;;;5039810;28;20599;-83
2022/08/23 05:23:00;;;;;;;6.85;6.25;;;13.70;99.90;;;;;;5067488;28;20179;-81
2022/08/23 05:32:00;;;;;;;6.43;5.70;;;13.90;99.90;;;;;;5046905;28;20212;-82
2022/08/23 05:34:47;;;;;;;6.70;6.10;;;13.90;99.90;;;;;;5045739;28;20183;-83
2022/08/23 05:37:14;;;;;;;6.60;6.10;;;14.10;99.90;;;;;;5047809;28;20227;-79
2022/08/23 05:39:40;;;;;;;6.00;5.50;;;14.20;99.90;;;;;;5058945;28;20185;-80
2022/08/23 05:42:30;;;;;;;6.18;5.72;;;14.20;99.90;;;;;;5048765;28;20188;-80
2022/08/23 05:45:02;;;;;;;5.95;5.45;;;14.20;99.90;;;;;;5046340;28;20224;-80
2022/08/23 05:47:28;;;;;;;6.05;5.50;;;14.30;99.90;;;;;;5042609;28;20196;-79
2022/08/23 05:49:56;;;;;;;6.00;5.50;;;14.30;99.90;;;;;;5048061;28;20184;-80
2022/08/23 05:52:22;;;;;;;6.57;5.93;;;14.40;99.90;;;;;;5042245;28;20210;-77
2022/08/23 05:54:47;;;;;;;7.57;6.05;;;14.40;99.90;;;;;;5035931;28;20260;-76
2022/08/23 05:57:13;;;;;;;6.07;5.43;;;14.50;99.90;;;;;;5036600;28;20262;-76
2022/08/23 05:59:40;;;;;;;5.75;5.30;;;14.60;99.90;;;;;;5038106;28;20190;-77
2022/08/23 06:02:06;;;;;;;5.93;5.35;;;14.60;99.90;;;;;;5037555;28;20547;-76
2022/08/23 06:04:32;;;;;;;7.88;5.18;;;14.70;99.90;;;;;;5051549;28;20230;-77
2022/08/23 06:06:57;;;;;;;5.82;5.32;;;14.80;99.90;;;;;;5041641;28;20211;-77
2022/08/23 06:09:23;;;;;;;6.13;5.55;;;14.90;99.90;;;;;;5042511;28;20717;-77
2022/08/23 06:11:49;;;;;;;5.60;5.20;;;15.10;99.90;;;;;;5043965;28;20207;-77
2022/08/23 06:14:15;;;;;;;6.35;5.80;;;15.10;99.90;;;;;;5043850;28;20563;-77
2022/08/23 06:16:45;;;;;;;5.75;5.40;;;15.20;99.90;;;;;;5039480;28;20181;-76
2022/08/23 06:19:11;;;;;;;7.30;5.90;;;15.20;99.90;;;;;;5032565;28;20175;-77
2022/08/23 06:21:38;;;;;;;6.57;6.00;;;15.30;99.90;;;;;;5038417;28;20207;-77
2022/08/23 06:24:04;;;;;;;6.60;6.10;;;15.30;99.90;;;;;;5034767;28;20177;-78
2022/08/23 06:26:37;;;;;;;5.90;5.40;;;15.40;99.90;;;;;;5035742;28;20164;-77
2022/08/23 06:29:10;;;;;;;6.90;5.22;;;15.50;99.90;;;;;;5036275;28;20176;-76
2022/08/23 06:31:45;;;;;;;9.07;5.43;;;15.70;99.90;;;;;;5037196;28;20179;-75
2022/08/23 06:34:32;;;;;;;7.28;5.32;;;15.80;99.90;;;;;;5035185;28;20171;-76
2022/08/23 06:37:03;;;;;;;6.40;5.78;;;15.90;99.90;;;;;;5042062;28;20192;-77
2022/08/23 06:39:30;;;;;;;5.88;5.30;;;16.00;99.90;;;;;;5042381;28;20184;-77
2022/08/23 06:41:59;;;;;;;5.38;4.97;;;16.10;99.90;;;;;;5030940;28;20212;-77
2022/08/23 06:44:26;;;;;;;5.70;5.32;;;16.20;99.90;;;;;;5029596;28;20180;-75
2022/08/23 06:46:52;;;;;;;6.22;5.72;;;16.30;99.90;;;;;;5033237;28;20220;-75
2022/08/23 06:49:18;;;;;;;6.10;5.50;;;16.40;99.90;;;;;;5030896;28;20183;-76
2022/08/23 06:51:47;;;;;;;5.38;5.03;;;16.60;99.90;;;;;;5025121;28;20189;-76
2022/08/23 06:54:15;;;;;;;8.23;5.88;;;16.70;99.90;;;;;;5018980;28;20685;-76
2022/08/23 06:56:42;;;;;;;6.43;5.57;;;17.00;99.90;;;;;;5025751;28;20177;-76
2022/08/23 06:59:08;;;;;;;7.70;5.63;;;17.10;99.90;;;;;;5028122;28;20184;-76
2022/08/23 07:01:40;;;;;;;6.45;5.88;;;17.20;99.90;;;;;;5036890;28;20604;-76
2022/08/23 07:04:08;;;;;;;5.03;4.68;;;17.40;99.90;;;;;;5036675;28;20199;-76
2022/08/23 07:06:34;;;;;;;6.88;5.15;;;17.50;99.90;;;;;;5040964;28;20204;-75
2022/08/23 07:09:00;;;;;;;5.75;5.13;;;17.60;99.90;;;;;;5023654;28;20178;-76
2022/08/23 07:11:30;;;;;;;6.03;4.90;;;17.70;99.90;;;;;;5019675;28;20185;-76
2022/08/23 07:13:56;;;;;;;6.85;4.88;;;17.80;99.90;;;;;;5031467;28;20188;-78
2022/08/23 07:16:22;;;;;;;5.45;4.95;;;17.90;99.90;;;;;;5037492;28;20581;-74
2022/08/23 07:18:51;;;;;;;6.60;4.75;;;18.00;99.90;;;;;;5046356;28;20199;-75
2022/08/23 07:21:18;;;;;;;5.07;4.60;;;18.10;99.90;;;;;;5042820;28;20165;-75
2022/08/23 07:23:44;;;;;;;5.20;4.78;;;18.20;99.90;;;;;;5042059;28;20175;-74
2022/08/23 07:26:12;;;;;;;6.63;4.35;;;18.30;99.90;;;;;;5038653;28;20671;-74
2022/08/23 07:28:39;;;;;;;6.22;5.60;;;18.40;99.90;;;;;;5045462;28;20682;-74
2022/08/23 07:31:07;;;;;;;6.40;5.50;;;18.40;99.90;;;;;;5046776;28;20191;-74
2022/08/23 07:33:33;;;;;;;6.28;5.07;;;18.60;99.90;;;;;;5020879;28;20209;-73
2022/08/23 07:35:58;;;;;;;6.90;5.33;;;18.70;99.90;;;;;;5029168;28;20484;-76
2022/08/23 07:38:24;;;;;;;5.25;4.85;;;18.80;99.90;;;;;;5034923;28;20525;-74
2022/08/23 07:40:49;;;;;;;5.45;4.53;;;18.90;99.90;;;;;;5038061;28;20185;-74
2022/08/23 07:43:15;;;;;;;5.25;4.75;;;19.00;99.90;;;;;;5040909;28;20304;-74
2022/08/23 07:45:42;;;;;;;4.88;4.47;;;19.10;99.90;;;;;;5031130;28;20176;-74
2022/08/23 07:48:07;;;;;;;5.53;4.30;;;19.20;99.90;;;;;;5054389;28;20199;-77
2022/08/23 07:50:33;;;;;;;4.70;4.20;;;19.30;99.90;;;;;;5033683;28;20191;-76
2022/08/23 07:53:01;;;;;;;4.85;4.32;;;19.40;99.90;;;;;;5035302;28;20246;-75
2022/08/23 07:55:27;;;;;;;4.95;4.28;;;19.50;99.90;;;;;;5033247;28;20223;-75
2022/08/23 07:57:53;;;;;;;8.15;4.03;;;19.60;99.90;;;;;;5035852;28;20201;-76
2022/08/23 08:00:19;;;;;;;5.43;4.65;;;19.60;99.90;;;;;;5044056;28;20175;-76
2022/08/23 08:02:45;;;;;;;4.40;4.05;;;19.70;99.90;;;;;;5031928;28;20785;-75
2022/08/23 08:05:10;;;;;;;4.18;3.85;;;19.80;99.90;;;;;;5045160;28;20176;-73
2022/08/23 08:07:36;;;;;;;4.50;4.15;;;19.90;99.90;;;;;;5033956;28;20201;-72
2022/08/23 08:10:03;;;;;;;3.90;3.55;;;19.90;99.90;;;;;;5038918;28;20662;-72
2022/08/23 08:12:31;;;;;;;4.25;3.83;;;19.90;99.90;;;;;;5034112;28;20215;-74
2022/08/23 08:14:56;;;;;;;4.60;4.05;;;19.90;99.90;;;;;;5037408;28;20549;-73
2022/08/23 08:17:22;;;;;;;4.57;3.75;;;20.00;99.90;;;;;;5042959;28;20200;-74
2022/08/23 08:19:48;;;;;;;4.35;3.53;;;20.10;99.90;;;;;;5035385;28;20183;-74
2022/08/23 08:22:13;;;;;;;3.65;3.30;;;20.20;99.90;;;;;;5043871;28;20179;-73
2022/08/23 08:24:39;;;;;;;4.97;3.17;;;20.20;99.90;;;;;;5043723;28;20199;-77
2022/08/23 08:27:05;;;;;;;4.20;3.80;;;20.30;99.90;;;;;;5032298;28;20667;-73
2022/08/23 08:29:31;;;;;;;4.63;4.05;;;20.40;99.90;;;;;;5043532;28;20191;-74
2022/08/23 08:31:57;;;;;;;3.40;3.10;;;20.40;99.90;;;;;;5037202;28;20204;-74
2022/08/23 08:34:22;;;;;;;6.00;3.60;;;20.50;99.90;;;;;;5032317;28;20172;-72
2022/08/23 08:36:52;;;;;;;4.45;3.75;;;20.50;99.90;;;;;;5030938;28;20205;-75
2022/08/23 08:39:30;;;;;;;4.40;3.53;;;20.50;99.90;;;;;;5037187;28;20203;-76
2022/08/23 08:42:19;;;;;;;3.92;3.53;;;20.60;99.90;;;;;;5037260;28;20192;-73
2022/08/23 08:45:10;;;;;;;5.80;3.20;;;20.70;99.90;;;;;;5039334;28;20175;-72
2022/08/23 08:47:58;;;;;;;3.22;2.97;;;20.80;99.90;;;;;;5030583;28;20208;-73
2022/08/23 08:50:32;;;;;;;3.03;2.70;;;20.90;99.90;;;;;;5027290;28;20259;-74
2022/08/23 08:53:17;;;;;;;8.10;2.78;;;21.00;99.90;;;;;;5034166;28;20214;-76
2022/08/23 08:55:50;;;;;;;2.13;1.95;;;21.10;99.90;;;;;;5040075;28;20198;-75
2022/08/23 08:58:27;;;;;;;2.30;2.00;;;21.30;99.90;;;;;;5042457;28;20211;-75
2022/08/23 09:00:53;;;;;;;1.70;1.60;;;21.40;99.90;;;;;;5034501;28;20188;-75
2022/08/23 09:03:20;;;;;;;2.67;1.70;;;21.60;99.90;;;;;;5037631;28;20184;-75
2022/08/23 09:06:22;;;;;;;2.00;1.80;;;21.80;99.90;;;;;;5040383;28;20184;-76
2022/08/23 09:09:10;;;;;;;1.85;1.55;;;22.00;99.20;;;;;;5032922;28;20308;-76
2022/08/23 09:12:02;;;;;;;1.40;1.33;;;22.20;99.00;;;;;;5031874;28;20177;-74
2022/08/23 09:15:06;;;;;;;2.60;1.42;;;22.60;94.50;;;;;;5030909;28;20671;-74
2022/08/23 09:17:48;;;;;;;1.10;1.10;;;23.90;91.70;;;;;;5022703;28;20205;-74
2022/08/23 09:20:16;;;;;;;1.33;1.25;;;26.80;82.30;;;;;;5035601;28;20183;-73
2022/08/23 09:22:45;;;;;;;1.25;1.25;;;29.40;67.20;;;;;;5040657;28;20176;-72
2022/08/23 09:25:13;;;;;;;1.38;1.10;;;31.70;58.40;;;;;;5040289;28;20179;-73
2022/08/23 09:27:42;;;;;;;1.52;1.17;;;33.20;53.60;;;;;;5038578;28;20206;-73
2022/08/23 09:30:09;;;;;;;1.80;1.00;;;34.40;48.80;;;;;;5033227;28;20177;-73
2022/08/23 09:32:37;;;;;;;1.05;1.05;;;35.30;46.60;;;;;;5040704;28;20203;-73
2022/08/23 09:35:23;;;;;;;0.85;0.85;;;35.80;44.10;;;;;;5037343;28;20237;-73
2022/08/23 09:37:57;;;;;;;0.88;0.88;;;36.70;42.80;;;;;;5034664;28;20187;-76
2022/08/23 09:40:36;;;;;;;1.63;1.20;;;37.10;41.80;;;;;;5038545;28;20180;-72
2022/08/23 09:43:11;;;;;;;1.02;0.98;;;37.60;40.50;;;;;;5035035;28;20193;-72
2022/08/23 09:45:40;;;;;;;1.13;1.02;;;37.80;41.40;;;;;;5036307;28;20675;-71
2022/08/23 09:48:10;;;;;;;0.95;0.90;;;38.30;40.30;;;;;;5031072;28;20210;-71
2022/08/23 09:50:41;;;;;;;1.30;1.20;;;39.10;39.80;;;;;;5035501;28;20194;-72
2022/08/23 09:53:09;;;;;;;1.45;1.30;;;39.10;37.40;;;;;;5029476;28;20213;-71
2022/08/23 09:55:50;;;;;;;0.70;0.70;;;39.60;37.30;;;;;;5058983;28;20172;-71
2022/08/23 09:58:37;;;;;;;1.15;1.10;;;39.70;37.30;;;;;;5034049;28;20187;-72
2022/08/23 10:01:20;;;;;;;0.98;0.90;;;39.70;36.40;;;;;;5037352;28;20276;-72
2022/08/23 10:03:46;;;;;;;0.70;0.70;;;40.10;37.10;;;;;;5040507;28;20175;-70
2022/08/23 10:06:27;;;;;;;0.70;0.70;;;40.70;35.90;;;;;;5044707;28;20543;-73
2022/08/23 10:08:57;;;;;;;1.50;0.90;;;40.70;35.00;;;;;;5054154;28;20203;-71
2022/08/23 10:11:28;;;;;;;0.90;0.73;;;40.90;35.70;;;;;;5033827;28;20295;-71
2022/08/23 10:13:54;;;;;;;0.85;0.70;;;41.50;35.90;;;;;;5045348;28;20207;-71
2022/08/23 10:16:40;;;;;;;0.80;0.73;;;41.90;34.40;;;;;;5045214;28;20254;-71
2022/08/23 10:19:34;;;;;;;0.88;0.88;;;41.50;35.00;;;;;;5052151;28;20182;-71
2022/08/23 10:22:07;;;;;;;0.80;0.80;;;41.00;35.30;;;;;;5031419;28;20204;-71
2022/08/23 10:24:43;;;;;;;2.17;0.70;;;42.40;33.50;;;;;;5042190;28;20184;-70
2022/08/23 10:29:36;;;;;;;0.50;0.50;;;42.30;34.30;;;;;;5031819;28;20206;-72
2022/08/23 10:30:12;;;;;;;0.52;0.50;;;43.00;33.00;;;;;;5033311;28;20676;-70
2022/08/23 10:32:53;;;;;;;1.50;0.45;;;43.30;32.10;;;;;;5044165;28;20603;-71
2022/08/23 10:35:41;;;;;;;0.82;0.82;;;44.20;30.70;;;;;;5040417;28;20176;-72
2022/08/23 10:38:20;;;;;;;0.60;0.60;;;44.40;30.90;;;;;;5039214;28;20207;-73
2022/08/23 10:41:15;;;;;;;0.90;0.90;;;44.60;30.40;;;;;;5039625;28;20517;-73
2022/08/23 10:44:04;;;;;;;0.80;0.80;;;43.80;32.30;;;;;;5035107;28;20176;-70
2022/08/23 10:46:36;;;;;;;0.93;0.70;;;43.80;31.80;;;;;;5044733;28;20180;-70
2022/08/23 10:49:03;;;;;;;0.68;0.63;;;43.40;31.70;;;;;;5042808;28;20179;-70
2022/08/23 10:51:36;;;;;;;0.50;0.50;;;44.00;31.50;;;;;;5019513;28;20180;-71
2022/08/23 10:54:06;;;;;;;0.65;0.65;;;43.30;31.20;;;;;;5022984;28;20214;-70
2022/08/23 10:56:33;;;;;;;0.60;0.60;;;43.30;32.60;;;;;;5023599;28;20442;-70
2022/08/23 10:59:00;;;;;;;0.55;0.55;;;43.40;32.30;;;;;;5040063;28;20678;-70
2022/08/23 11:01:45;;;;;;;0.45;0.45;;;43.90;31.40;;;;;;5027995;28;20540;-71
2022/08/23 11:04:42;;;;;;;0.50;0.50;;;43.80;30.80;;;;;;5032442;28;20179;-71
2022/08/23 11:07:15;;;;;;;0.93;0.90;;;44.20;31.10;;;;;;5016353;28;20215;-71
2022/08/23 11:09:57;;;;;;;0.82;0.60;;;44.80;30.60;;;;;;5021253;28;20678;-70
2022/08/23 11:12:26;;;;;;;0.68;0.63;;;44.70;30.30;;;;;;5022481;28;20200;-71
2022/08/23 11:15:06;;;;;;;0.80;0.80;;;44.50;31.20;;;;;;5028466;28;20191;-70
2022/08/23 11:17:55;;;;;;;0.60;0.60;;;45.10;29.90;;;;;;5025924;28;20286;-71
2022/08/23 11:20:49;;;;;;;0.75;0.68;;;44.00;31.50;;;;;;5032358;28;20219;-72
2022/08/23 11:23:35;;;;;;;0.55;0.55;;;43.80;30.90;;;;;;5013258;28;20181;-71
2022/08/23 11:26:03;;;;;;;2.60;0.73;;;43.70;31.90;;;;;;5017717;28;20187;-72
2022/08/23 11:28:37;;;;;;;0.90;0.55;;;44.20;31.00;;;;;;5019290;28;20357;-71
2022/08/23 11:31:36;;;;;;;1.63;0.80;;;44.40;30.80;;;;;;5019586;28;20716;-70
2022/08/23 11:34:03;;;;;;;0.60;0.60;;;45.00;30.10;;;;;;5021190;28;20658;-70
2022/08/23 11:36:31;;;;;;;1.38;1.00;;;44.40;30.60;;;;;;5014109;28;20176;-70
2022/08/23 11:38:57;;;;;;;0.73;0.73;;;43.90;31.70;;;;;;5025961;28;20580;-69
2022/08/23 11:41:49;;;;;;;0.98;0.80;;;43.80;32.20;;;;;;5019332;28;20179;-68
2022/08/23 11:44:20;;;;;;;0.90;0.80;;;44.00;31.90;;;;;;5017786;28;20255;-69
2022/08/23 11:46:59;;;;;;;0.60;0.60;;;44.30;31.50;;;;;;5019481;28;20287;-69
2022/08/23 11:49:46;;;;;;;1.73;1.63;;;44.30;31.20;;;;;;5024974;28;20180;-69
2022/08/23 11:52:35;;;;;;;1.40;0.50;;;44.70;31.00;;;;;;5026956;28;20302;-70
2022/08/23 11:55:35;;;;;;;0.30;0.30;;;45.20;30.60;;;;;;5040855;28;20785;-74
2022/08/23 11:58:16;;;;;;;0.43;0.43;;;45.80;29.40;;;;;;5024734;28;20228;-71
2022/08/23 12:00:45;;;;;;;0.50;0.50;;;45.60;29.70;;;;;;5029265;28;20176;-71
2022/08/23 12:03:35;;;;;;;0.57;0.40;;;45.80;29.70;;;;;;5029283;28;20286;-70
2022/08/23 12:06:12;;;;;;;0.73;0.55;;;46.00;29.20;;;;;;5030978;28;20187;-71
2022/08/23 12:08:46;;;;;;;0.50;0.50;;;45.50;29.70;;;;;;5022229;28;20204;-70
2022/08/23 12:11:13;;;;;;;0.98;0.60;;;44.50;30.20;;;;;;5019123;28;20647;-72
2022/08/23 12:13:53;;;;;;;1.30;0.60;;;43.80;30.00;;;;;;5029286;28;20274;-70
2022/08/23 12:16:18;;;;;;;0.90;0.90;;;42.80;30.70;;;;;;5023005;28;20177;-70
2022/08/23 12:18:51;;;;;;;0.73;0.73;;;42.60;30.50;;;;;;5032021;28;20262;-71
2022/08/23 12:21:37;;;;;;;0.52;0.52;;;42.70;30.50;;;;;;5043044;28;20172;-71
2022/08/23 12:24:15;;;;;;;0.52;0.52;;;42.80;30.10;;;;;;5039016;28;20240;-70
2022/08/23 12:26:41;;;;;;;0.40;0.40;;;43.10;30.40;;;;;;5034487;28;20188;-70
2022/08/23 12:29:43;;;;;;;0.50;0.50;;;42.70;30.80;;;;;;5038135;28;20172;-70
2022/08/23 12:32:08;;;;;;;0.55;0.55;;;42.30;31.20;;;;;;5035215;28;20214;-71
2022/08/23 12:34:49;;;;;;;0.82;0.55;;;42.00;31.20;;;;;;5029422;28;20665;-72
2022/08/23 12:37:29;;;;;;;0.57;0.57;;;41.80;31.50;;;;;;5034983;28;20735;-70
2022/08/23 12:39:58;;;;;;;0.57;0.57;;;41.70;32.60;;;;;;5041834;28;20630;-71
2022/08/23 12:42:35;;;;;;;1.50;0.70;;;41.70;32.40;;;;;;5037179;28;20207;-71
2022/08/23 12:45:11;;;;;;;1.27;0.55;;;41.60;32.40;;;;;;5042423;28;20191;-74
2022/08/23 12:47:41;;;;;;;0.50;0.50;;;41.80;32.30;;;;;;5043140;28;20731;-72
2022/08/23 12:50:15;;;;;;;0.57;0.57;;;41.90;33.20;;;;;;5021894;28;20665;-73
2022/08/23 12:52:41;;;;;;;0.68;0.68;;;42.10;32.50;;;;;;5027685;28;20211;-73
2022/08/23 12:55:15;;;;;;;0.60;0.60;;;42.70;31.00;;;;;;5029440;28;20190;-73
2022/08/23 12:57:44;;;;;;;0.70;0.70;;;42.60;31.40;;;;;;5038239;28;20571;-72
2022/08/23 13:00:16;;;;;;;0.80;0.73;;;42.40;32.00;;;;;;5037584;28;20180;-72
2022/08/23 13:02:47;;;;;;;0.80;0.50;;;42.40;31.30;;;;;;5040762;28;20251;-72
2022/08/23 13:05:42;;;;;;;5.13;0.63;;;41.70;31.90;;;;;;5042262;28;20262;-73
2022/08/23 13:08:26;;;;;;;1.75;0.63;;;41.50;33.00;;;;;;5032612;28;20230;-74
2022/08/23 13:10:53;;;;;;;0.50;0.50;;;42.10;32.60;;;;;;5041059;28;20179;-73
2022/08/23 13:13:24;;;;;;;1.23;0.50;;;43.60;30.80;;;;;;5039056;28;20576;-72
2022/08/23 13:15:56;;;;;;;1.73;0.57;;;43.40;31.80;;;;;;5044542;28;20179;-72
2022/08/23 13:18:23;;;;;;;0.60;0.60;;;42.70;31.70;;;;;;5038679;28;20203;-72
2022/08/23 13:21:21;;;;;;;0.50;0.50;;;41.90;32.80;;;;;;5045074;28;20169;-73
2022/08/23 13:23:50;;;;;;;0.70;0.70;;;42.40;32.70;;;;;;5035501;28;20185;-71
2022/08/23 13:26:35;;;;;;;1.27;0.63;;;43.00;31.80;;;;;;5044750;28;20539;-72
2022/08/23 13:29:07;;;;;;;1.25;0.70;;;42.00;31.90;;;;;;5044269;28;20191;-71
2022/08/23 13:31:52;;;;;;;2.38;0.70;;;42.30;33.00;;;;;;5044605;28;20546;-72
2022/08/23 13:34:39;;;;;;;0.70;0.70;;;42.60;33.30;;;;;;5025805;28;20177;-74